sensor_id;sensor_type;location;lat;lon;timestamp;pressure;altitude;pressure_sealevel;temperature;humidity
23059;BME280;30585;51.502;7.218;2022-10-16T00:01:28;153356.03;;;12.56;100.00
23059;BME280;30585;51.502;7.218;2022-10-16T00:03:57;153339.22;;;12.49;100.00
23059;BME280;30585;51.502;7.218;2022-10-16T00:06:26;153339.22;;;12.49;100.00
23059;BME280;30585;51.502;7.218;2022-10-16T00:08:54;153306.84;;;12.36;100.00
23059;BME280;30585;51.502;7.218;2022-10-16T00:11:25;153321.06;;;12.42;100.00
23059;BME280;30585;51.502;7.218;2022-10-16T00:13:56;153323.69;;;12.43;100.00
23059;BME280;30585;51.502;7.218;2022-10-16T00:16:24;153319.81;;;12.41;100.00
23059;BME280;30585;51.502;7.218;2022-10-16T00:18:53;153264.16;;;12.19;100.00
23059;BME280;30585;51.502;7.218;2022-10-16T00:21:22;153284.88;;;12.27;100.00
23059;BME280;30585;51.502;7.218;2022-10-16T00:23:50;153310.75;;;12.38;100.00
23059;BME280;30585;51.502;7.218;2022-10-16T00:26:19;153297.78;;;12.32;100.00
23059;BME280;30585;51.502;7.218;2022-10-16T00:28:49;153306.84;;;12.36;100.00
23059;BME280;30585;51.502;7.218;2022-10-16T00:31:19;153297.78;;;12.32;100.00
23059;BME280;30585;51.502;7.218;2022-10-16T00:33:47;153279.69;;;12.25;100.00
23059;BME280;30585;51.502;7.218;2022-10-16T00:36:17;153259.00;;;12.17;100.00
23059;BME280;30585;51.502;7.218;2022-10-16T00:38:46;153301.69;;;12.34;100.00
23059;BME280;30585;51.502;7.218;2022-10-16T00:41:16;153313.34;;;12.39;100.00
23059;BME280;30585;51.502;7.218;2022-10-16T00:43:45;153331.44;;;12.46;100.00
23059;BME280;30585;51.502;7.218;2022-10-16T00:46:19;153313.34;;;12.39;100.00
23059;BME280;30585;51.502;7.218;2022-10-16T00:48:50;153302.97;;;12.35;100.00
23059;BME280;30585;51.502;7.218;2022-10-16T00:51:21;153271.91;;;12.22;100.00
23059;BME280;30585;51.502;7.218;2022-10-16T00:53:50;153293.91;;;12.31;100.00
23059;BME280;30585;51.502;7.218;2022-10-16T00:56:18;153305.56;;;12.36;100.00
23059;BME280;30585;51.502;7.218;2022-10-16T00:58:46;153302.97;;;12.35;100.00
23059;BME280;30585;51.502;7.218;2022-10-16T01:01:15;153284.88;;;12.27;100.00
23059;BME280;30585;51.502;7.218;2022-10-16T01:03:43;153265.44;;;12.20;100.00
23059;BME280;30585;51.502;7.218;2022-10-16T01:06:21;153266.78;;;12.20;100.00
23059;BME280;30585;51.502;7.218;2022-10-16T01:09:11;153269.34;;;12.21;100.00
23059;BME280;30585;51.502;7.218;2022-10-16T01:11:49;153281.00;;;12.26;100.00
23059;BME280;30585;51.502;7.218;2022-10-16T01:14:26;153265.44;;;12.20;100.00
23059;BME280;30585;51.502;7.218;2022-10-16T01:17:04;153252.53;;;12.14;100.00
23059;BME280;30585;51.502;7.218;2022-10-16T01:19:44;153227.94;;;12.05;100.00
23059;BME280;30585;51.502;7.218;2022-10-16T01:22:19;153243.47;;;12.11;100.00
23059;BME280;30585;51.502;7.218;2022-10-16T01:24:49;153222.75;;;12.03;100.00
23059;BME280;30585;51.502;7.218;2022-10-16T01:27:21;153215.00;;;11.99;100.00
23059;BME280;30585;51.502;7.218;2022-10-16T01:29:54;153200.72;;;11.94;100.00
23059;BME280;30585;51.502;7.218;2022-10-16T01:32:28;153192.94;;;11.91;100.00
23059;BME280;30585;51.502;7.218;2022-10-16T01:35:02;153204.59;;;11.95;100.00
23059;BME280;30585;51.502;7.218;2022-10-16T01:37:35;153205.91;;;11.96;100.00
23059;BME280;30585;51.502;7.218;2022-10-16T01:40:07;153164.47;;;11.79;100.00
23059;BME280;30585;51.502;7.218;2022-10-16T01:42:41;153161.88;;;11.78;100.00
23059;BME280;30585;51.502;7.218;2022-10-16T01:45:12;153159.34;;;11.77;100.00
23059;BME280;30585;51.502;7.218;2022-10-16T01:47:42;153145.09;;;11.72;100.00
23059;BME280;30585;51.502;7.218;2022-10-16T01:50:12;153145.09;;;11.72;100.00
23059;BME280;30585;51.502;7.218;2022-10-16T01:52:44;153150.25;;;11.74;100.00
23059;BME280;30585;51.502;7.218;2022-10-16T01:55:19;153134.75;;;11.67;100.00
23059;BME280;30585;51.502;7.218;2022-10-16T01:57:51;153133.47;;;11.67;100.00
23059;BME280;30585;51.502;7.218;2022-10-16T02:00:22;153160.63;;;11.78;100.00
23059;BME280;30585;51.502;7.218;2022-10-16T02:02:53;153168.38;;;11.81;100.00
23059;BME280;30585;51.502;7.218;2022-10-16T02:05:25;153189.09;;;11.89;100.00
23059;BME280;30585;51.502;7.218;2022-10-16T02:07:54;153202.00;;;11.94;100.00
23059;BME280;30585;51.502;7.218;2022-10-16T02:10:26;153205.91;;;11.96;100.00
23059;BME280;30585;51.502;7.218;2022-10-16T02:13:03;153203.31;;;11.95;100.00
23059;BME280;30585;51.502;7.218;2022-10-16T02:15:32;153235.69;;;12.08;100.00
23059;BME280;30585;51.502;7.218;2022-10-16T02:18:01;153251.22;;;12.14;100.00
23059;BME280;30585;51.502;7.218;2022-10-16T02:20:32;153269.34;;;12.21;100.00
23059;BME280;30585;51.502;7.218;2022-10-16T02:23:03;153253.81;;;12.15;100.00
23059;BME280;30585;51.502;7.218;2022-10-16T02:25:34;153252.53;;;12.14;100.00
23059;BME280;30585;51.502;7.218;2022-10-16T02:28:08;153246.03;;;12.12;100.00
23059;BME280;30585;51.502;7.218;2022-10-16T02:30:42;153247.34;;;12.12;100.00
23059;BME280;30585;51.502;7.218;2022-10-16T02:33:12;153273.22;;;12.23;100.00
23059;BME280;30585;51.502;7.218;2022-10-16T02:35:41;153284.88;;;12.27;100.00
23059;BME280;30585;51.502;7.218;2022-10-16T02:38:11;153251.22;;;12.14;100.00
23059;BME280;30585;51.502;7.218;2022-10-16T02:40:40;153282.28;;;12.26;100.00
23059;BME280;30585;51.502;7.218;2022-10-16T02:43:10;153284.88;;;12.27;100.00
23059;BME280;30585;51.502;7.218;2022-10-16T02:45:39;153290.06;;;12.29;100.00
23059;BME280;30585;51.502;7.218;2022-10-16T02:48:06;153266.78;;;12.20;100.00
23059;BME280;30585;51.502;7.218;2022-10-16T02:50:34;153277.09;;;12.24;100.00
23059;BME280;30585;51.502;7.218;2022-10-16T02:53:02;153268.03;;;12.21;100.00
23059;BME280;30585;51.502;7.218;2022-10-16T02:55:30;153273.22;;;12.23;100.00
23059;BME280;30585;51.502;7.218;2022-10-16T02:57:58;153300.38;;;12.34;100.00
23059;BME280;30585;51.502;7.218;2022-10-16T03:00:27;153266.78;;;12.20;100.00
23059;BME280;30585;51.502;7.218;2022-10-16T03:02:54;153300.38;;;12.34;100.00
23059;BME280;30585;51.502;7.218;2022-10-16T03:05:22;153325.00;;;12.43;100.00
23059;BME280;30585;51.502;7.218;2022-10-16T03:07:50;153296.50;;;12.32;100.00
23059;BME280;30585;51.502;7.218;2022-10-16T03:10:18;153302.97;;;12.35;100.00
23059;BME280;30585;51.502;7.218;2022-10-16T03:12:46;153339.22;;;12.49;100.00
23059;BME280;30585;51.502;7.218;2022-10-16T03:15:14;153354.75;;;12.55;100.00
23059;BME280;30585;51.502;7.218;2022-10-16T03:17:43;153352.16;;;12.54;100.00
23059;BME280;30585;51.502;7.218;2022-10-16T03:20:10;153344.38;;;12.51;100.00
23059;BME280;30585;51.502;7.218;2022-10-16T03:22:38;153356.03;;;12.56;100.00
23059;BME280;30585;51.502;7.218;2022-10-16T03:25:07;153362.53;;;12.58;100.00
23059;BME280;30585;51.502;7.218;2022-10-16T03:27:35;153361.22;;;12.58;100.00
23059;BME280;30585;51.502;7.218;2022-10-16T03:30:03;153365.13;;;12.59;100.00
23059;BME280;30585;51.502;7.218;2022-10-16T03:32:31;153345.69;;;12.52;100.00
23059;BME280;30585;51.502;7.218;2022-10-16T03:35:00;153335.31;;;12.47;100.00
23059;BME280;30585;51.502;7.218;2022-10-16T03:37:28;153356.03;;;12.56;100.00
23059;BME280;30585;51.502;7.218;2022-10-16T03:39:56;153372.84;;;12.62;100.00
23059;BME280;30585;51.502;7.218;2022-10-16T03:42:23;153353.47;;;12.55;100.00
23059;BME280;30585;51.502;7.218;2022-10-16T03:44:51;153334.03;;;12.47;100.00
23059;BME280;30585;51.502;7.218;2022-10-16T03:47:19;153365.13;;;12.59;100.00
23059;BME280;30585;51.502;7.218;2022-10-16T03:49:50;153362.53;;;12.58;100.00
23059;BME280;30585;51.502;7.218;2022-10-16T03:52:19;153341.81;;;12.50;100.00
23059;BME280;30585;51.502;7.218;2022-10-16T03:54:46;153278.41;;;12.25;100.00
23059;BME280;30585;51.502;7.218;2022-10-16T03:57:14;153357.34;;;12.56;100.00
23059;BME280;30585;51.502;7.218;2022-10-16T03:59:42;153334.03;;;12.47;100.00
23059;BME280;30585;51.502;7.218;2022-10-16T04:02:10;153332.72;;;12.46;100.00
23059;BME280;30585;51.502;7.218;2022-10-16T04:04:37;153334.03;;;12.47;100.00
23059;BME280;30585;51.502;7.218;2022-10-16T04:07:05;153327.59;;;12.44;100.00
23059;BME280;30585;51.502;7.218;2022-10-16T04:09:34;153334.03;;;12.47;100.00
23059;BME280;30585;51.502;7.218;2022-10-16T04:12:02;153297.78;;;12.32;100.00
23059;BME280;30585;51.502;7.218;2022-10-16T04:14:30;153336.66;;;12.48;100.00
23059;BME280;30585;51.502;7.218;2022-10-16T04:16:57;153332.72;;;12.46;100.00
23059;BME280;30585;51.502;7.218;2022-10-16T04:19:25;153325.00;;;12.43;100.00
23059;BME280;30585;51.502;7.218;2022-10-16T04:21:53;153277.09;;;12.24;100.00
23059;BME280;30585;51.502;7.218;2022-10-16T04:24:20;153331.44;;;12.46;100.00
23059;BME280;30585;51.502;7.218;2022-10-16T04:26:49;153340.50;;;12.50;100.00
23059;BME280;30585;51.502;7.218;2022-10-16T04:29:17;153317.22;;;12.40;100.00
23059;BME280;30585;51.502;7.218;2022-10-16T04:31:46;153287.47;;;12.28;100.00
23059;BME280;30585;51.502;7.218;2022-10-16T04:34:14;153295.19;;;12.31;100.00
23059;BME280;30585;51.502;7.218;2022-10-16T04:36:41;153296.50;;;12.32;100.00
23059;BME280;30585;51.502;7.218;2022-10-16T04:39:09;153302.97;;;12.35;100.00
23059;BME280;30585;51.502;7.218;2022-10-16T04:41:36;153271.91;;;12.22;100.00
23059;BME280;30585;51.502;7.218;2022-10-16T04:44:06;153270.63;;;12.22;100.00
23059;BME280;30585;51.502;7.218;2022-10-16T04:46:33;153283.56;;;12.27;100.00
23059;BME280;30585;51.502;7.218;2022-10-16T04:49:01;153248.63;;;12.13;100.00
23059;BME280;30585;51.502;7.218;2022-10-16T04:51:29;153269.34;;;12.21;100.00
23059;BME280;30585;51.502;7.218;2022-10-16T04:53:57;153261.59;;;12.18;100.00
23059;BME280;30585;51.502;7.218;2022-10-16T04:56:24;153291.34;;;12.30;100.00
23059;BME280;30585;51.502;7.218;2022-10-16T04:58:52;153270.63;;;12.22;100.00
23059;BME280;30585;51.502;7.218;2022-10-16T05:01:21;153284.88;;;12.27;100.00
23059;BME280;30585;51.502;7.218;2022-10-16T05:03:49;153264.16;;;12.19;100.00
23059;BME280;30585;51.502;7.218;2022-10-16T05:06:17;153257.72;;;12.17;100.00
23059;BME280;30585;51.502;7.218;2022-10-16T05:08:45;153266.78;;;12.20;100.00
23059;BME280;30585;51.502;7.218;2022-10-16T05:11:12;153282.28;;;12.26;100.00
23059;BME280;30585;51.502;7.218;2022-10-16T05:13:40;153287.47;;;12.28;100.00
23059;BME280;30585;51.502;7.218;2022-10-16T05:16:08;153302.97;;;12.35;100.00
23059;BME280;30585;51.502;7.218;2022-10-16T05:18:37;153310.75;;;12.38;100.00
23059;BME280;30585;51.502;7.218;2022-10-16T05:21:05;153313.34;;;12.39;100.00
23059;BME280;30585;51.502;7.218;2022-10-16T05:23:33;153284.88;;;12.27;100.00
23059;BME280;30585;51.502;7.218;2022-10-16T05:26:01;153291.34;;;12.30;100.00
23059;BME280;30585;51.502;7.218;2022-10-16T05:28:29;153317.22;;;12.40;100.00
23059;BME280;30585;51.502;7.218;2022-10-16T05:30:57;153318.50;;;12.41;100.00
23059;BME280;30585;51.502;7.218;2022-10-16T05:33:25;153312.03;;;12.38;100.00
23059;BME280;30585;51.502;7.218;2022-10-16T05:35:54;153315.94;;;12.40;100.00
23059;BME280;30585;51.502;7.218;2022-10-16T05:38:22;153317.22;;;12.40;100.00
23059;BME280;30585;51.502;7.218;2022-10-16T05:40:50;153315.94;;;12.40;100.00
23059;BME280;30585;51.502;7.218;2022-10-16T05:43:19;153286.16;;;12.28;100.00
23059;BME280;30585;51.502;7.218;2022-10-16T05:45:53;153305.56;;;12.36;100.00
23059;BME280;30585;51.502;7.218;2022-10-16T05:48:21;153313.34;;;12.39;100.00
23059;BME280;30585;51.502;7.218;2022-10-16T05:50:58;153312.03;;;12.38;100.00
23059;BME280;30585;51.502;7.218;2022-10-16T05:53:27;153314.63;;;12.39;100.00
23059;BME280;30585;51.502;7.218;2022-10-16T05:55:56;153352.16;;;12.54;100.00
23059;BME280;30585;51.502;7.218;2022-10-16T05:58:24;153339.22;;;12.49;100.00
23059;BME280;30585;51.502;7.218;2022-10-16T06:00:53;153310.75;;;12.38;100.00
23059;BME280;30585;51.502;7.218;2022-10-16T06:03:22;153332.72;;;12.46;100.00
23059;BME280;30585;51.502;7.218;2022-10-16T06:05:50;153326.25;;;12.44;100.00
23059;BME280;30585;51.502;7.218;2022-10-16T06:08:20;153325.00;;;12.43;100.00
23059;BME280;30585;51.502;7.218;2022-10-16T06:10:49;153283.56;;;12.27;100.00
23059;BME280;30585;51.502;7.218;2022-10-16T06:13:17;153306.84;;;12.36;100.00
23059;BME280;30585;51.502;7.218;2022-10-16T06:15:44;153287.47;;;12.28;100.00
23059;BME280;30585;51.502;7.218;2022-10-16T06:18:12;153317.22;;;12.40;100.00
23059;BME280;30585;51.502;7.218;2022-10-16T06:20:40;153309.44;;;12.37;100.00
23059;BME280;30585;51.502;7.218;2022-10-16T06:23:08;153312.03;;;12.38;100.00
23059;BME280;30585;51.502;7.218;2022-10-16T06:25:37;153290.06;;;12.29;100.00
23059;BME280;30585;51.502;7.218;2022-10-16T06:28:04;153305.56;;;12.36;100.00
23059;BME280;30585;51.502;7.218;2022-10-16T06:30:32;153297.78;;;12.32;100.00
23059;BME280;30585;51.502;7.218;2022-10-16T06:33:00;153304.28;;;12.35;100.00
23059;BME280;30585;51.502;7.218;2022-10-16T06:35:28;153304.28;;;12.35;100.00
23059;BME280;30585;51.502;7.218;2022-10-16T06:37:58;153306.84;;;12.36;100.00
23059;BME280;30585;51.502;7.218;2022-10-16T06:40:26;153305.56;;;12.36;100.00
23059;BME280;30585;51.502;7.218;2022-10-16T06:42:56;153274.50;;;12.23;100.00
23059;BME280;30585;51.502;7.218;2022-10-16T06:45:23;153334.03;;;12.47;100.00
23059;BME280;30585;51.502;7.218;2022-10-16T06:47:51;153328.84;;;12.45;100.00
23059;BME280;30585;51.502;7.218;2022-10-16T06:50:19;153319.81;;;12.41;100.00
23059;BME280;30585;51.502;7.218;2022-10-16T06:52:47;153348.28;;;12.53;100.00
23059;BME280;30585;51.502;7.218;2022-10-16T06:55:14;153361.22;;;12.58;100.00
23059;BME280;30585;51.502;7.218;2022-10-16T06:57:43;153370.25;;;12.61;100.00
23059;BME280;30585;51.502;7.218;2022-10-16T07:00:13;153388.41;;;12.69;100.00
23059;BME280;30585;51.502;7.218;2022-10-16T07:02:40;153411.72;;;12.78;100.00
23059;BME280;30585;51.502;7.218;2022-10-16T07:05:08;153394.88;;;12.71;100.00
23059;BME280;30585;51.502;7.218;2022-10-16T07:07:36;153432.41;;;12.86;100.00
23059;BME280;30585;51.502;7.218;2022-10-16T07:10:04;153428.50;;;12.85;100.00
23059;BME280;30585;51.502;7.218;2022-10-16T07:12:32;153432.41;;;12.86;100.00
23059;BME280;30585;51.502;7.218;2022-10-16T07:15:00;153441.47;;;12.90;100.00
23059;BME280;30585;51.502;7.218;2022-10-16T07:17:29;153466.03;;;13.00;100.00
23059;BME280;30585;51.502;7.218;2022-10-16T07:19:56;153481.63;;;13.06;100.00
23059;BME280;30585;51.502;7.218;2022-10-16T07:22:24;153475.09;;;13.03;100.00
23059;BME280;30585;51.502;7.218;2022-10-16T07:24:52;153497.13;;;13.12;100.00
23059;BME280;30585;51.502;7.218;2022-10-16T07:27:20;153489.34;;;13.09;100.00
23059;BME280;30585;51.502;7.218;2022-10-16T07:29:50;153479.03;;;13.05;100.00
23059;BME280;30585;51.502;7.218;2022-10-16T07:32:18;153457.00;;;12.96;100.00
23059;BME280;30585;51.502;7.218;2022-10-16T07:34:47;153479.03;;;13.05;100.00
23059;BME280;30585;51.502;7.218;2022-10-16T07:37:14;153462.19;;;12.98;100.00
23059;BME280;30585;51.502;7.218;2022-10-16T07:39:42;153472.56;;;13.02;100.00
23059;BME280;30585;51.502;7.218;2022-10-16T07:42:10;153520.44;;;13.21;100.00
23059;BME280;30585;51.502;7.218;2022-10-16T07:44:38;153577.47;;;13.44;100.00
23059;BME280;30585;51.502;7.218;2022-10-16T07:47:06;153621.50;;;13.62;100.00
23059;BME280;30585;51.502;7.218;2022-10-16T07:49:34;153650.00;;;13.73;100.00
23059;BME280;30585;51.502;7.218;2022-10-16T07:52:03;153686.25;;;13.87;100.00
23059;BME280;30585;51.502;7.218;2022-10-16T07:54:31;153704.38;;;13.95;100.00
23059;BME280;30585;51.502;7.218;2022-10-16T07:56:59;153712.16;;;13.98;100.00
23059;BME280;30585;51.502;7.218;2022-10-16T07:59:27;153764.00;;;14.18;100.00
23059;BME280;30585;51.502;7.218;2022-10-16T08:01:54;153767.84;;;14.20;100.00
23059;BME280;30585;51.502;7.218;2022-10-16T08:04:22;153764.00;;;14.18;100.00
23059;BME280;30585;51.502;7.218;2022-10-16T08:06:50;153796.38;;;14.31;100.00
23059;BME280;30585;51.502;7.218;2022-10-16T08:09:19;153849.50;;;14.53;100.00
23059;BME280;30585;51.502;7.218;2022-10-16T08:11:47;153843.03;;;14.50;100.00
23059;BME280;30585;51.502;7.218;2022-10-16T08:14:18;153902.72;;;14.74;100.00
23059;BME280;30585;51.502;7.218;2022-10-16T08:16:46;153876.72;;;14.63;100.00
23059;BME280;30585;51.502;7.218;2022-10-16T08:19:14;153920.84;;;14.81;100.00
23059;BME280;30585;51.502;7.218;2022-10-16T08:21:46;153975.31;;;15.03;100.00
23059;BME280;30585;51.502;7.218;2022-10-16T08:24:14;153953.25;;;14.94;100.00
23059;BME280;30585;51.502;7.218;2022-10-16T08:26:43;153981.78;;;15.05;100.00
23059;BME280;30585;51.502;7.218;2022-10-16T08:29:11;153979.19;;;15.04;100.00
23059;BME280;30585;51.502;7.218;2022-10-16T08:31:40;154012.91;;;15.18;100.00
23059;BME280;30585;51.502;7.218;2022-10-16T08:34:08;154071.25;;;15.41;100.00
23059;BME280;30585;51.502;7.218;2022-10-16T08:36:35;154069.91;;;15.40;100.00
23059;BME280;30585;51.502;7.218;2022-10-16T08:39:04;154072.53;;;15.41;100.00
23059;BME280;30585;51.502;7.218;2022-10-16T08:42:04;154086.78;;;15.47;100.00
23059;BME280;30585;51.502;7.218;2022-10-16T08:44:53;154139.94;;;15.68;100.00
23059;BME280;30585;51.502;7.218;2022-10-16T08:47:33;154134.78;;;15.66;100.00
23059;BME280;30585;51.502;7.218;2022-10-16T08:50:10;154110.13;;;15.56;100.00
23059;BME280;30585;51.502;7.218;2022-10-16T08:52:40;154184.13;;;15.86;100.00
23059;BME280;30585;51.502;7.218;2022-10-16T08:55:17;154221.75;;;16.01;100.00
23059;BME280;30585;51.502;7.218;2022-10-16T08:57:50;154245.09;;;16.10;100.00
23059;BME280;30585;51.502;7.218;2022-10-16T09:00:18;154193.19;;;15.89;100.00
23059;BME280;30585;51.502;7.218;2022-10-16T09:02:52;154206.16;;;15.95;99.43
23059;BME280;30585;51.502;7.218;2022-10-16T09:08:21;154319.03;;;16.40;100.00
23059;BME280;30585;51.502;7.218;2022-10-16T09:10:56;154342.38;;;16.49;97.16
23059;BME280;30585;51.502;7.218;2022-10-16T09:13:31;154356.66;;;16.55;98.15
23059;BME280;30585;51.502;7.218;2022-10-16T09:16:12;154420.25;;;16.80;99.23
23059;BME280;30585;51.502;7.218;2022-10-16T09:18:45;154395.56;;;16.70;96.84
23059;BME280;30585;51.502;7.218;2022-10-16T09:21:18;154425.47;;;16.82;94.73
23059;BME280;30585;51.502;7.218;2022-10-16T09:23:47;154428.06;;;16.83;98.36
23059;BME280;30585;51.502;7.218;2022-10-16T09:26:16;154399.50;;;16.72;94.57
23059;BME280;30585;51.502;7.218;2022-10-16T09:28:45;154368.34;;;16.59;94.09
23059;BME280;30585;51.502;7.218;2022-10-16T09:31:17;154473.50;;;17.01;96.62
23059;BME280;30585;51.502;7.218;2022-10-16T09:33:50;154504.69;;;17.13;94.85
23059;BME280;30585;51.502;7.218;2022-10-16T09:36:21;154531.91;;;17.24;92.55
23059;BME280;30585;51.502;7.218;2022-10-16T09:39:02;154556.63;;;17.34;94.68
23059;BME280;30585;51.502;7.218;2022-10-16T09:41:30;154577.38;;;17.42;94.10
23059;BME280;30585;51.502;7.218;2022-10-16T09:44:01;154573.44;;;17.41;92.74
23059;BME280;30585;51.502;7.218;2022-10-16T09:46:31;154543.59;;;17.29;91.95
23059;BME280;30585;51.502;7.218;2022-10-16T09:49:00;154481.31;;;17.04;93.32
23059;BME280;30585;51.502;7.218;2022-10-16T09:51:30;154455.34;;;16.94;91.73
23059;BME280;30585;51.502;7.218;2022-10-16T09:53:59;154511.16;;;17.16;92.45
23059;BME280;30585;51.502;7.218;2022-10-16T09:56:29;154477.38;;;17.03;93.08
23059;BME280;30585;51.502;7.218;2022-10-16T09:58:58;154473.50;;;17.01;89.02
23059;BME280;30585;51.502;7.218;2022-10-16T10:01:30;154526.72;;;17.22;90.63
23059;BME280;30585;51.502;7.218;2022-10-16T10:03:59;154547.53;;;17.31;91.03
23059;BME280;30585;51.502;7.218;2022-10-16T10:06:31;154541.00;;;17.28;87.59
23059;BME280;30585;51.502;7.218;2022-10-16T10:09:04;154508.56;;;17.15;91.21
23059;BME280;30585;51.502;7.218;2022-10-16T10:11:47;154491.66;;;17.08;90.13
23059;BME280;30585;51.502;7.218;2022-10-16T10:14:23;154521.56;;;17.20;89.26
23059;BME280;30585;51.502;7.218;2022-10-16T10:17:08;154521.56;;;17.20;87.67
23059;BME280;30585;51.502;7.218;2022-10-16T10:19:41;154554.00;;;17.33;89.09
23059;BME280;30585;51.502;7.218;2022-10-16T10:22:28;154551.41;;;17.32;90.81
23059;BME280;30585;51.502;7.218;2022-10-16T10:25:00;154605.94;;;17.54;88.01
23059;BME280;30585;51.502;7.218;2022-10-16T10:27:39;154509.88;;;17.16;84.48
23059;BME280;30585;51.502;7.218;2022-10-16T10:30:15;154517.63;;;17.19;88.69
23059;BME280;30585;51.502;7.218;2022-10-16T10:32:55;154538.41;;;17.27;90.43
23059;BME280;30585;51.502;7.218;2022-10-16T10:35:38;154652.69;;;17.72;88.95
23059;BME280;30585;51.502;7.218;2022-10-16T10:38:20;154677.34;;;17.82;87.30
23059;BME280;30585;51.502;7.218;2022-10-16T10:40:51;154721.53;;;18.00;88.37
23059;BME280;30585;51.502;7.218;2022-10-16T10:43:35;154780.00;;;18.23;85.83
23059;BME280;30585;51.502;7.218;2022-10-16T10:46:10;154841.06;;;18.47;86.30
23059;BME280;30585;51.502;7.218;2022-10-16T10:48:51;154902.13;;;18.72;87.09
23059;BME280;30585;51.502;7.218;2022-10-16T10:51:26;154759.22;;;18.15;82.55
23059;BME280;30585;51.502;7.218;2022-10-16T10:54:07;154907.34;;;18.74;86.38
23059;BME280;30585;51.502;7.218;2022-10-16T10:56:44;154939.81;;;18.87;84.49
23059;BME280;30585;51.502;7.218;2022-10-16T10:59:24;154972.38;;;18.99;84.88
23059;BME280;30585;51.502;7.218;2022-10-16T11:01:56;155003.56;;;19.12;82.54
23059;BME280;30585;51.502;7.218;2022-10-16T11:04:36;155017.84;;;19.18;83.70
23059;BME280;30585;51.502;7.218;2022-10-16T11:07:15;155019.19;;;19.18;81.47
23059;BME280;30585;51.502;7.218;2022-10-16T11:09:46;155037.38;;;19.25;79.31
23059;BME280;30585;51.502;7.218;2022-10-16T11:12:17;154789.13;;;18.27;83.54
23059;BME280;30585;51.502;7.218;2022-10-16T11:14:49;154713.78;;;17.97;81.05
23059;BME280;30585;51.502;7.218;2022-10-16T11:17:24;154863.16;;;18.56;82.54
23059;BME280;30585;51.502;7.218;2022-10-16T11:19:58;154958.09;;;18.94;87.15
23059;BME280;30585;51.502;7.218;2022-10-16T11:22:32;155042.56;;;19.27;81.85
23059;BME280;30585;51.502;7.218;2022-10-16T11:25:05;155077.66;;;19.41;78.80
23059;BME280;30585;51.502;7.218;2022-10-16T11:27:43;155055.56;;;19.33;82.97
23059;BME280;30585;51.502;7.218;2022-10-16T11:30:16;154965.84;;;18.97;78.37
23059;BME280;30585;51.502;7.218;2022-10-16T11:32:54;155041.25;;;19.27;79.97
23059;BME280;30585;51.502;7.218;2022-10-16T11:35:35;154882.66;;;18.64;79.42
23059;BME280;30585;51.502;7.218;2022-10-16T11:38:10;154787.81;;;18.26;78.36
23059;BME280;30585;51.502;7.218;2022-10-16T11:40:41;154790.41;;;18.27;80.75
23059;BME280;30585;51.502;7.218;2022-10-16T11:43:14;154781.31;;;18.24;81.25
23059;BME280;30585;51.502;7.218;2022-10-16T11:45:45;154916.44;;;18.77;82.31
23059;BME280;30585;51.502;7.218;2022-10-16T11:48:20;154933.31;;;18.84;81.68
23059;BME280;30585;51.502;7.218;2022-10-16T11:50:53;154939.81;;;18.87;80.36
23059;BME280;30585;51.502;7.218;2022-10-16T11:53:37;155015.25;;;19.17;81.33
23059;BME280;30585;51.502;7.218;2022-10-16T11:56:06;155082.84;;;19.43;80.88
23059;BME280;30585;51.502;7.218;2022-10-16T11:58:37;154885.28;;;18.65;75.77
23059;BME280;30585;51.502;7.218;2022-10-16T12:01:16;154932.03;;;18.83;80.90
23059;BME280;30585;51.502;7.218;2022-10-16T12:03:50;155003.56;;;19.12;81.76
23059;BME280;30585;51.502;7.218;2022-10-16T12:06:31;154885.28;;;18.65;76.49
23059;BME280;30585;51.502;7.218;2022-10-16T12:09:02;154994.47;;;19.08;77.30
23059;BME280;30585;51.502;7.218;2022-10-16T12:11:34;155068.56;;;19.38;78.63
23059;BME280;30585;51.502;7.218;2022-10-16T12:17:26;155192.13;;;19.87;76.46
23059;BME280;30585;51.502;7.218;2022-10-16T12:20:00;155233.72;;;20.03;75.36
23059;BME280;30585;51.502;7.218;2022-10-16T12:22:31;155229.84;;;20.02;72.31
23059;BME280;30585;51.502;7.218;2022-10-16T12:25:05;155176.47;;;19.81;73.95
23059;BME280;30585;51.502;7.218;2022-10-16T12:27:33;155257.13;;;20.13;74.42
23059;BME280;30585;51.502;7.218;2022-10-16T12:30:04;155255.84;;;20.12;71.82
23059;BME280;30585;51.502;7.218;2022-10-16T12:32:34;155285.75;;;20.24;73.17
23059;BME280;30585;51.502;7.218;2022-10-16T12:35:21;155250.63;;;20.10;71.31
23059;BME280;30585;51.502;7.218;2022-10-16T12:37:51;155119.25;;;19.58;71.91
23059;BME280;30585;51.502;7.218;2022-10-16T12:40:28;155117.94;;;19.57;73.48
23059;BME280;30585;51.502;7.218;2022-10-16T12:42:57;155059.44;;;19.34;73.85
23059;BME280;30585;51.502;7.218;2022-10-16T12:45:28;154955.47;;;18.93;72.88
23059;BME280;30585;51.502;7.218;2022-10-16T12:47:58;154867.03;;;18.58;76.88
23059;BME280;30585;51.502;7.218;2022-10-16T12:50:33;154873.56;;;18.60;76.42
23059;BME280;30585;51.502;7.218;2022-10-16T12:53:15;154887.81;;;18.66;76.08
23059;BME280;30585;51.502;7.218;2022-10-16T12:55:55;154986.66;;;19.05;80.38
23059;BME280;30585;51.502;7.218;2022-10-16T12:58:37;155002.28;;;19.11;79.71
23059;BME280;30585;51.502;7.218;2022-10-16T13:01:20;154895.63;;;18.69;76.75
23059;BME280;30585;51.502;7.218;2022-10-16T13:04:18;154980.16;;;19.03;77.78
23059;BME280;30585;51.502;7.218;2022-10-16T13:06:53;155013.97;;;19.16;74.49
23059;BME280;30585;51.502;7.218;2022-10-16T13:09:49;155091.97;;;19.47;76.22